Time;durP1;ratioP1;P1;durP2;ratioP2;P2;SDS_P1;SDS_P2;PMS_P1;PMS_P2;Temp;Humidity;BMP_temperature;BMP_pressure;BME280_temperature;BME280_humidity;BME280_pressure;Samples;Min_cycle;Max_cycle;Signal;HPM_P1;HPM_P2
2023/05/15 00:00:50;;;;;;;10.35;7.60;;;;;;;9.21;72.35;100958.22;5044253;28;20110;-54
2023/05/15 00:03:17;;;;;;;12.95;8.55;;;;;;;9.13;72.08;100953.22;5065197;28;20117;-54
2023/05/15 00:05:44;;;;;;;11.10;7.65;;;;;;;9.13;72.45;100955.00;5070996;28;20044;-54
2023/05/15 00:08:11;;;;;;;13.77;8.23;;;;;;;9.05;71.94;100946.50;5065587;28;20048;-54
2023/05/15 00:10:39;;;;;;;11.18;8.30;;;;;;;9.12;72.89;100946.22;5063201;28;20422;-54
2023/05/15 00:13:17;;;;;;;12.27;8.60;;;;;;;9.17;72.31;100946.03;5069190;28;20361;-54
2023/05/15 00:15:44;;;;;;;10.13;8.38;;;;;;;9.25;71.96;100938.72;5069362;28;20056;-54
2023/05/15 00:18:10;;;;;;;14.20;8.30;;;;;;;9.25;71.76;100937.84;5072773;28;20464;-54
2023/05/15 00:20:37;;;;;;;13.48;8.20;;;;;;;9.16;71.86;100934.63;5072605;28;20079;-53
2023/05/15 00:23:04;;;;;;;12.57;8.25;;;;;;;9.09;72.15;100935.78;5073245;28;20336;-54
2023/05/15 00:25:30;;;;;;;11.50;7.82;;;;;;;9.07;72.19;100934.13;5074470;28;20560;-54
2023/05/15 00:27:57;;;;;;;10.18;8.65;;;;;;;9.03;72.06;100930.75;5063005;28;20067;-57
2023/05/15 00:30:23;;;;;;;11.48;7.60;;;;;;;9.01;72.00;100929.94;5071978;28;20044;-54
2023/05/15 00:32:50;;;;;;;11.27;8.20;;;;;;;9.04;72.33;100923.69;5074637;28;20052;-56
2023/05/15 00:35:17;;;;;;;9.65;7.90;;;;;;;9.06;71.75;100929.78;5083594;28;20083;-54
2023/05/15 00:37:43;;;;;;;14.35;7.25;;;;;;;8.99;72.02;100921.19;5083388;28;20052;-54
2023/05/15 00:40:33;;;;;;;13.02;9.45;;;;;;;8.89;72.12;100922.47;5071615;28;20117;-54
2023/05/15 00:43:01;;;;;;;11.75;8.32;;;;;;;8.80;72.60;100915.75;5083049;28;20063;-53
2023/05/15 00:45:29;;;;;;;24.20;9.60;;;;;;;8.80;72.62;100910.47;5072843;28;20479;-54
2023/05/15 00:47:57;;;;;;;10.50;8.13;;;;;;;8.77;73.23;100907.94;5062964;28;20052;-55
2023/05/15 00:50:24;;;;;;;10.40;8.38;;;;;;;8.72;72.90;100896.72;5089808;28;20055;-55
2023/05/15 00:52:51;;;;;;;14.57;8.88;;;;;;;8.70;73.43;100893.28;5082704;28;20052;-55
2023/05/15 00:55:18;;;;;;;11.60;9.93;;;;;;;8.67;73.87;100893.38;5092676;28;20052;-55
2023/05/15 00:57:46;;;;;;;13.32;9.52;;;;;;;8.59;74.59;100894.50;5068010;28;20660;-55
2023/05/15 01:00:15;;;;;;;18.85;9.77;;;;;;;8.54;74.45;100890.31;5070679;28;20109;-55
2023/05/15 01:02:43;;;;;;;13.55;8.68;;;;;;;8.59;74.72;100888.38;5068352;28;20041;-55
2023/05/15 01:05:09;;;;;;;12.40;9.32;;;;;;;8.60;74.78;100888.31;5080431;28;20498;-56
2023/05/15 01:07:44;;;;;;;11.77;9.10;;;;;;;8.60;74.92;100888.31;5075543;28;20051;-55
2023/05/15 01:10:11;;;;;;;15.88;9.10;;;;;;;8.58;74.89;100879.63;5079140;28;20048;-55
2023/05/15 01:12:40;;;;;;;14.48;9.48;;;;;;;8.55;75.27;100876.22;5057319;28;20097;-55
2023/05/15 01:15:06;;;;;;;12.73;9.75;;;;;;;8.54;75.35;100878.00;5058397;28;20044;-55
2023/05/15 01:17:33;;;;;;;14.45;9.98;;;;;;;8.54;75.38;100872.72;5078851;28;20415;-55
2023/05/15 01:20:05;;;;;;;12.25;9.85;;;;;;;8.62;75.78;100881.22;5059854;28;20078;-55
2023/05/15 01:22:50;;;;;;;13.60;9.35;;;;;;;8.62;76.49;100875.09;5071863;28;20050;-54
2023/05/15 01:25:47;;;;;;;12.95;9.88;;;;;;;8.61;76.59;100874.25;5076401;28;20109;-54
2023/05/15 01:28:21;;;;;;;12.95;10.10;;;;;;;8.57;76.98;100872.63;5082076;28;20566;-55
2023/05/15 01:30:49;;;;;;;13.43;10.30;;;;;;;8.53;77.13;100875.41;5076320;28;20060;-54
2023/05/15 01:33:33;;;;;;;16.50;10.55;;;;;;;8.52;77.80;100874.56;5075417;28;20048;-55
2023/05/15 01:36:06;;;;;;;17.83;11.07;;;;;;;8.63;78.80;100877.69;5075023;28;20048;-55
2023/05/15 01:38:46;;;;;;;12.85;10.23;;;;;;;8.61;78.66;100868.09;5049987;28;20128;-54
2023/05/15 01:41:39;;;;;;;12.30;10.73;;;;;;;8.75;79.53;100865.00;5081047;28;20052;-55
2023/05/15 01:44:13;;;;;;;13.85;10.55;;;;;;;8.75;80.26;100875.53;5076206;28;20056;-55
2023/05/15 01:46:44;;;;;;;18.98;11.98;;;;;;;8.79;80.89;100866.56;5089970;28;20446;-55
2023/05/15 01:49:14;;;;;;;13.88;11.65;;;;;;;8.78;80.70;100857.81;5094301;28;20131;-56
2023/05/15 01:51:43;;;;;;;14.68;11.77;;;;;;;8.76;81.46;100853.50;5083933;28;20428;-55
2023/05/15 01:54:11;;;;;;;15.77;11.95;;;;;;;8.87;82.66;100859.25;5080547;28;20444;-56
2023/05/15 01:56:39;;;;;;;18.30;12.07;;;;;;;8.90;82.77;100855.66;5075764;28;20109;-55
2023/05/15 01:59:06;;;;;;;17.35;12.30;;;;;;;8.82;81.67;100855.94;5076696;28;20101;-55
2023/05/15 02:01:35;;;;;;;16.70;12.18;;;;;;;8.83;80.85;100847.13;5084077;28;20051;-54
2023/05/15 02:04:03;;;;;;;13.68;10.90;;;;;;;8.72;80.17;100841.38;5082865;28;20044;-54
2023/05/15 02:06:30;;;;;;;15.80;11.43;;;;;;;8.64;80.39;100836.38;5080227;28;20044;-55
2023/05/15 02:08:57;;;;;;;16.23;11.23;;;;;;;8.53;80.17;100844.66;5087409;28;20056;-55
2023/05/15 02:11:24;;;;;;;18.23;11.05;;;;;;;8.47;80.12;100842.25;5077837;28;20048;-55
2023/05/15 02:13:51;;;;;;;14.80;11.70;;;;;;;8.43;80.51;100843.25;5086573;28;20121;-55
2023/05/15 02:16:18;;;;;;;18.60;14.32;;;;;;;8.50;81.72;100844.78;5080577;28;20057;-55
2023/05/15 02:18:45;;;;;;;14.32;11.98;;;;;;;8.51;82.15;100841.22;5054708;28;20067;-55
2023/05/15 02:21:12;;;;;;;12.73;10.95;;;;;;;8.49;81.79;100843.06;5076367;28;20106;-56
2023/05/15 02:23:39;;;;;;;17.13;11.98;;;;;;;8.51;82.56;100838.59;5074795;28;20507;-55
2023/05/15 02:26:12;;;;;;;20.48;13.30;;;;;;;8.52;82.46;100836.84;5074846;28;20068;-56
2023/05/15 02:28:57;;;;;;;20.98;13.63;;;;;;;8.49;82.97;100832.50;5075026;28;20048;-55
2023/05/15 02:31:59;;;;;;;16.35;12.32;;;;;;;8.50;83.48;100828.97;5080954;28;20398;-55
2023/05/15 02:34:49;;;;;;;15.93;12.70;;;;;;;8.43;82.74;100827.47;5038489;28;20040;-55
2023/05/15 02:37:19;;;;;;;16.75;12.32;;;;;;;8.44;83.84;100821.28;5095135;28;20060;-54
2023/05/15 02:39:48;;;;;;;19.80;12.23;;;;;;;8.40;83.11;100819.63;5078649;28;20151;-55
2023/05/15 02:42:15;;;;;;;22.60;14.15;;;;;;;8.37;82.37;100811.84;5074218;28;20466;-55
2023/05/15 02:44:43;;;;;;;15.65;11.65;;;;;;;8.33;81.25;100812.88;5074487;28;20106;-55
2023/05/15 02:47:10;;;;;;;15.65;11.55;;;;;;;8.18;81.28;100807.22;5072930;28;20049;-55
2023/05/15 02:49:38;;;;;;;18.70;11.30;;;;;;;8.11;81.53;100810.13;5095566;28;20060;-55
2023/05/15 02:52:05;;;;;;;18.50;11.90;;;;;;;8.04;82.09;100799.81;5074221;28;20504;-55
2023/05/15 02:54:32;;;;;;;13.40;11.20;;;;;;;8.01;81.88;100805.19;5073988;28;20108;-55
2023/05/15 02:56:58;;;;;;;18.92;12.00;;;;;;;7.98;81.82;100797.38;5072952;28;20400;-55
2023/05/15 02:59:25;;;;;;;17.55;11.98;;;;;;;7.98;81.88;100796.53;5073709;28;20056;-55
2023/05/15 03:01:51;;;;;;;16.58;12.55;;;;;;;7.99;81.59;100795.59;5073780;28;20055;-55
2023/05/15 03:04:18;;;;;;;18.63;13.10;;;;;;;7.98;81.48;100793.91;5073306;28;20060;-55
2023/05/15 03:06:44;;;;;;;14.13;12.02;;;;;;;7.96;81.41;100790.44;5059986;28;20380;-55
2023/05/15 03:09:11;;;;;;;17.05;12.32;;;;;;;7.91;81.42;100782.69;5060594;28;20082;-55
2023/05/15 03:11:37;;;;;;;17.48;13.55;;;;;;;7.86;81.77;100780.25;5072802;28;20102;-55
2023/05/15 03:14:03;;;;;;;16.35;12.63;;;;;;;7.81;81.74;100776.03;5063788;28;20040;-55
2023/05/15 03:16:30;;;;;;;18.83;12.48;;;;;;;7.86;82.91;100774.09;5073605;28;20048;-55
2023/05/15 03:18:56;;;;;;;16.73;12.88;;;;;;;7.89;82.54;100777.50;5073890;28;20052;-55
2023/05/15 03:21:23;;;;;;;17.05;13.13;;;;;;;7.93;82.62;100774.75;5073907;28;20127;-55
2023/05/15 03:23:49;;;;;;;19.60;12.73;;;;;;;7.96;82.97;100779.91;5072412;28;20044;-55
2023/05/15 03:26:16;;;;;;;17.20;12.27;;;;;;;7.97;81.40;100786.91;5064039;28;20041;-55
2023/05/15 03:28:42;;;;;;;16.65;11.45;;;;;;;7.96;81.27;100782.53;5063625;28;20052;-53
2023/05/15 03:31:09;;;;;;;17.20;11.15;;;;;;;7.87;80.82;100781.94;5070604;28;20381;-53
2023/05/15 03:33:36;;;;;;;15.68;12.05;;;;;;;7.78;81.44;100777.00;5080545;28;20048;-55
2023/05/15 03:36:04;;;;;;;17.75;12.52;;;;;;;7.73;81.74;100773.66;5093962;28;20044;-55
2023/05/15 03:38:30;;;;;;;20.85;12.68;;;;;;;7.61;81.71;100774.06;5078734;28;20060;-55
2023/05/15 03:40:57;;;;;;;16.50;13.05;;;;;;;7.58;82.03;100779.44;5073492;28;20044;-55
2023/05/15 03:43:23;;;;;;;16.95;13.38;;;;;;;7.54;82.18;100784.78;5072674;28;20052;-55
2023/05/15 03:45:50;;;;;;;16.50;12.27;;;;;;;7.53;82.28;100783.06;5073264;28;20592;-55
2023/05/15 03:48:16;;;;;;;16.70;13.32;;;;;;;7.61;81.42;100779.34;5075695;28;20053;-55
2023/05/15 03:50:44;;;;;;;19.33;12.48;;;;;;;7.60;81.28;100785.50;5089555;28;20053;-55
2023/05/15 03:53:11;;;;;;;17.58;12.57;;;;;;;7.57;81.04;100782.97;5072919;28;20075;-55
2023/05/15 03:55:37;;;;;;;15.57;12.20;;;;;;;7.57;81.39;100782.97;5072650;28;20044;-54
2023/05/15 03:58:03;;;;;;;19.75;12.60;;;;;;;7.51;81.64;100779.63;5072929;28;20106;-55
2023/05/15 04:00:30;;;;;;;18.88;14.40;;;;;;;7.57;82.04;100772.44;5071604;28;20710;-55
2023/05/15 04:02:56;;;;;;;15.32;13.05;;;;;;;7.58;82.07;100774.16;5073236;28;20114;-56
2023/05/15 04:05:23;;;;;;;16.65;13.80;;;;;;;7.62;81.83;100781.06;5073517;28;20047;-54
2023/05/15 04:07:50;;;;;;;19.17;12.88;;;;;;;7.68;81.75;100771.19;5073159;28;20060;-56
2023/05/15 04:10:16;;;;;;;22.35;13.30;;;;;;;7.76;82.52;100767.44;5077758;28;20052;-56
2023/05/15 04:12:43;;;;;;;21.33;13.55;;;;;;;7.79;81.59;100768.19;5053165;28;20420;-56
2023/05/15 04:15:21;;;;;;;23.95;14.45;;;;;;;7.81;81.39;100762.88;5089783;28;20059;-56
2023/05/15 04:17:50;;;;;;;15.25;12.30;;;;;;;7.86;81.72;100764.47;5086876;28;20060;-55
2023/05/15 04:20:18;;;;;;;20.73;14.70;;;;;;;7.95;82.20;100772.94;5078311;28;20048;-55
2023/05/15 04:22:45;;;;;;;18.83;13.75;;;;;;;7.99;81.88;100772.75;5079023;28;20083;-55
2023/05/15 04:25:13;;;;;;;20.42;14.68;;;;;;;8.09;81.79;100773.31;5075423;28;20045;-55
2023/05/15 04:27:41;;;;;;;17.13;14.02;;;;;;;8.15;81.83;100774.88;5071810;28;20049;-55
2023/05/15 04:30:08;;;;;;;17.80;13.90;;;;;;;8.33;81.66;100762.84;5055306;28;20067;-55
2023/05/15 04:32:36;;;;;;;21.00;15.73;;;;;;;8.41;81.77;100766.03;5073104;28;20058;-55
2023/05/15 04:35:08;;;;;;;19.75;13.68;;;;;;;8.52;80.97;100763.06;5072339;28;20678;-55
2023/05/15 04:37:36;;;;;;;20.38;14.77;;;;;;;8.59;81.11;100764.53;5070835;28;20041;-55
2023/05/15 04:40:03;;;;;;;27.45;14.70;;;;;;;8.66;81.36;100767.81;5072829;28;20082;-55
2023/05/15 04:42:30;;;;;;;21.67;15.98;;;;;;;8.92;82.77;100765.03;5063716;28;20053;-55
2023/05/15 04:44:56;;;;;;;19.80;15.45;;;;;;;9.13;82.52;100759.84;5057529;28;20056;-55
2023/05/15 04:47:23;;;;;;;20.40;15.57;;;;;;;9.12;81.84;100761.63;5075889;28;20075;-55
2023/05/15 04:49:50;;;;;;;29.63;15.93;;;;;;;9.21;82.33;100760.41;5076472;28;20056;-55
2023/05/15 04:52:16;;;;;;;18.65;14.82;;;;;;;9.30;82.50;100756.53;5075455;28;20040;-55
2023/05/15 04:54:43;;;;;;;20.10;14.15;;;;;;;9.59;82.13;100757.97;5075580;28;20044;-55
2023/05/15 04:57:09;;;;;;;20.77;16.55;;;;;;;9.67;81.53;100749.75;5085395;28;20044;-56
2023/05/15 04:59:36;;;;;;;26.38;16.75;;;;;;;9.73;80.95;100745.06;5077172;28;20056;-55
2023/05/15 05:02:02;;;;;;;21.33;16.02;;;;;;;9.77;80.82;100744.94;5080973;28;20052;-55
2023/05/15 05:04:29;;;;;;;20.30;16.63;;;;;;;9.86;81.54;100745.41;5078483;28;20063;-55
2023/05/15 05:06:56;;;;;;;21.13;16.23;;;;;;;9.91;80.89;100748.72;5076320;28;20571;-55
2023/05/15 05:09:22;;;;;;;23.35;15.88;;;;;;;9.97;80.97;100742.31;5076028;28;20067;-55
2023/05/15 05:11:49;;;;;;;20.88;16.25;;;;;;;10.14;79.43;100732.81;5075274;28;20053;-55
2023/05/15 05:14:15;;;;;;;21.77;15.85;;;;;;;10.23;79.19;100732.38;5075955;28;20048;-55
2023/05/15 05:16:44;;;;;;;23.92;16.25;;;;;;;10.34;77.99;100727.50;5075691;28;20063;-55
2023/05/15 05:19:10;;;;;;;23.35;17.15;;;;;;;10.45;77.85;100737.59;5075838;28;20136;-55
2023/05/15 05:21:37;;;;;;;18.25;15.75;;;;;;;10.58;76.99;100732.63;5074773;28;20457;-55
2023/05/15 05:24:04;;;;;;;17.98;14.73;;;;;;;10.59;76.94;100723.75;5068501;28;20045;-55
2023/05/15 05:26:30;;;;;;;25.00;15.30;;;;;;;10.65;76.76;100726.13;5072543;28;20052;-55
2023/05/15 05:28:57;;;;;;;21.35;17.05;;;;;;;10.91;75.78;100719.59;5069557;28;20060;-54
2023/05/15 05:31:23;;;;;;;26.77;16.50;;;;;;;11.00;74.34;100718.28;5074436;28;20048;-55
2023/05/15 05:33:51;;;;;;;24.38;16.10;;;;;;;11.12;74.52;100723.00;5075662;28;20052;-55
2023/05/15 05:36:17;;;;;;;21.83;15.88;;;;;;;11.21;75.02;100721.69;5075971;28;20139;-55
2023/05/15 05:38:44;;;;;;;20.33;16.17;;;;;;;11.29;74.24;100721.31;5075203;28;20052;-55
2023/05/15 05:41:10;;;;;;;19.90;15.23;;;;;;;11.40;73.60;100726.94;5079243;28;20053;-55
2023/05/15 05:43:37;;;;;;;23.88;15.38;;;;;;;11.53;73.09;100738.63;5074934;28;20052;-55
2023/05/15 05:46:03;;;;;;;23.73;15.70;;;;;;;11.64;72.94;100731.94;5076230;28;20425;-55
2023/05/15 05:48:30;;;;;;;22.83;14.85;;;;;;;11.79;72.07;100728.53;5075365;28;20048;-55
2023/05/15 05:50:57;;;;;;;22.33;15.32;;;;;;;11.98;71.33;100727.59;5076384;28;20044;-54
2023/05/15 05:53:23;;;;;;;24.25;15.40;;;;;;;12.06;70.55;100725.41;5076273;28;20048;-54
2023/05/15 05:55:50;;;;;;;24.10;14.82;;;;;;;12.16;68.98;100718.69;5075794;28;20133;-55
2023/05/15 05:58:17;;;;;;;16.67;13.38;;;;;;;12.30;68.37;100721.47;5074042;28;20056;-54
2023/05/15 06:00:49;;;;;;;19.33;12.93;;;;;;;12.37;67.74;100715.84;5075310;28;20048;-55
2023/05/15 06:03:16;;;;;;;21.67;12.77;;;;;;;12.47;68.41;100706.44;5072324;28;20052;-54
2023/05/15 06:05:42;;;;;;;21.42;13.23;;;;;;;12.69;66.74;100713.25;5075221;28;20587;-54
2023/05/15 06:08:09;;;;;;;20.10;13.55;;;;;;;12.83;65.50;100715.97;5074427;28;20067;-54
2023/05/15 06:10:36;;;;;;;22.85;13.85;;;;;;;13.06;64.75;100698.78;5082090;28;20049;-55
2023/05/15 06:13:02;;;;;;;19.38;11.93;;;;;;;13.29;62.50;100693.94;5083285;28;20044;-54
2023/05/15 06:15:29;;;;;;;18.42;12.52;;;;;;;13.53;61.95;100697.00;5088037;28;20040;-55
2023/05/15 06:17:55;;;;;;;19.48;10.88;;;;;;;13.73;61.26;100686.06;5081011;28;20056;-54
2023/05/15 06:20:22;;;;;;;19.02;11.18;;;;;;;13.83;60.76;100682.81;5075362;28;20048;-54
2023/05/15 06:22:49;;;;;;;18.92;10.65;;;;;;;14.00;58.48;100677.34;5074634;28;20049;-54
2023/05/15 06:25:15;;;;;;;18.92;9.25;;;;;;;14.01;60.28;100676.41;5073954;28;20478;-54
2023/05/15 06:27:42;;;;;;;14.25;9.30;;;;;;;14.07;60.68;100668.03;5074365;28;20044;-54
2023/05/15 06:30:09;;;;;;;15.32;10.25;;;;;;;14.21;58.44;100664.53;5074256;28;20048;-54
2023/05/15 06:32:35;;;;;;;19.70;9.30;;;;;;;14.34;56.85;100669.94;5074023;28;20053;-54
2023/05/15 06:35:02;;;;;;;12.93;9.23;;;;;;;14.45;56.15;100662.16;5070731;28;20422;-55
2023/05/15 06:37:29;;;;;;;14.57;8.60;;;;;;;14.61;55.70;100666.53;5073364;28;20041;-55
2023/05/15 06:39:55;;;;;;;13.60;8.70;;;;;;;14.71;55.41;100672.09;5074151;28;20055;-54
2023/05/15 06:42:22;;;;;;;12.23;8.25;;;;;;;14.85;55.55;100670.25;5071424;28;20064;-55
2023/05/15 06:44:48;;;;;;;17.73;9.02;;;;;;;15.05;54.56;100665.44;5073987;28;20044;-55
2023/05/15 06:47:15;;;;;;;9.65;7.82;;;;;;;15.17;54.77;100669.97;5073994;28;20048;-55
2023/05/15 06:49:42;;;;;;;19.77;8.30;;;;;;;15.31;54.13;100660.19;5073500;28;20139;-55
2023/05/15 06:52:08;;;;;;;15.40;7.68;;;;;;;15.44;53.65;100660.25;5070102;28;20048;-55
2023/05/15 06:54:35;;;;;;;16.42;8.00;;;;;;;15.55;52.87;100663.88;5075293;28;20068;-55
2023/05/15 06:57:01;;;;;;;12.82;7.35;;;;;;;15.69;52.29;100648.75;5082344;28;20058;-55
2023/05/15 06:59:28;;;;;;;12.05;7.85;;;;;;;15.78;52.19;100653.50;5077953;28;20102;-55
2023/05/15 07:01:54;;;;;;;12.45;8.07;;;;;;;15.92;51.87;100645.41;5082435;28;20075;-55
2023/05/15 07:04:21;;;;;;;13.82;6.97;;;;;;;15.95;52.35;100650.50;5075501;28;20056;-54
2023/05/15 07:06:48;;;;;;;13.85;7.93;;;;;;;16.04;52.01;100650.84;5088953;28;20044;-55
2023/05/15 07:09:14;;;;;;;10.02;7.53;;;;;;;16.11;50.94;100644.94;5089991;28;20060;-55
2023/05/15 07:11:41;;;;;;;11.75;7.50;;;;;;;16.22;51.37;100636.19;5072404;28;20472;-54
2023/05/15 07:14:07;;;;;;;17.50;8.30;;;;;;;16.42;50.19;100649.91;5074120;28;20102;-55
2023/05/15 07:16:34;;;;;;;9.50;6.38;;;;;;;16.52;50.19;100643.78;5073515;28;20086;-54
2023/05/15 07:19:00;;;;;;;10.88;6.28;;;;;;;16.68;49.52;100638.19;5075754;28;20097;-55
2023/05/15 07:21:27;;;;;;;13.32;6.95;;;;;;;16.79;48.82;100639.25;5081379;28;20123;-54
2023/05/15 07:23:53;;;;;;;12.02;6.88;;;;;;;16.95;49.42;100629.16;5055354;28;20059;-54
2023/05/15 07:26:20;;;;;;;9.07;7.35;;;;;;;17.01;49.43;100625.16;5073193;28;20048;-53
2023/05/15 07:29:02;;;;;;;13.05;6.53;;;;;;;17.02;49.53;100625.06;5083706;28;20064;-54
2023/05/15 07:31:32;;;;;;;8.65;5.90;;;;;;;17.09;47.10;100621.94;5073148;28;20052;-55
2023/05/15 07:33:59;;;;;;;12.55;6.35;;;;;;;17.10;47.41;100620.94;5072885;28;20052;-54
2023/05/15 07:36:25;;;;;;;10.60;6.43;;;;;;;17.12;47.14;100614.53;5073456;28;20052;-55
2023/05/15 07:38:52;;;;;;;12.30;5.80;;;;;;;17.05;46.96;100614.16;5084643;28;20040;-54
2023/05/15 07:41:18;;;;;;;11.77;6.30;;;;;;;17.17;47.39;100616.88;5074311;28;20396;-55
2023/05/15 07:43:45;;;;;;;14.73;6.50;;;;;;;17.29;46.89;100615.91;5073564;28;20049;-55
2023/05/15 07:46:11;;;;;;;17.13;7.25;;;;;;;17.41;47.91;100620.34;5075793;28;20044;-55
2023/05/15 07:48:38;;;;;;;10.43;6.00;;;;;;;17.58;46.69;100612.84;5093129;28;20113;-55
2023/05/15 07:51:05;;;;;;;13.52;5.78;;;;;;;17.84;45.99;100607.31;5074527;28;20504;-55
2023/05/15 07:53:32;;;;;;;8.40;5.45;;;;;;;17.93;44.95;100609.25;5072552;28;20623;-55
2023/05/15 07:55:58;;;;;;;8.40;5.13;;;;;;;18.27;44.77;100612.78;5076998;28;20090;-55
2023/05/15 07:58:25;;;;;;;10.25;5.63;;;;;;;18.39;44.21;100602.94;5081009;28;20040;-55
2023/05/15 08:00:51;;;;;;;14.05;5.65;;;;;;;18.66;44.12;100599.81;5071845;28;20052;-54
2023/05/15 08:03:18;;;;;;;7.85;4.85;;;;;;;18.78;43.26;100600.66;5073580;28;20052;-55
2023/05/15 08:05:46;;;;;;;8.98;4.88;;;;;;;18.78;42.52;100595.28;5079573;28;20044;-55
2023/05/15 08:08:12;;;;;;;10.63;5.30;;;;;;;18.91;42.79;100596.97;5074061;28;20155;-54
2023/05/15 08:10:39;;;;;;;10.93;5.10;;;;;;;18.97;41.92;100597.31;5071336;28;20056;-54
2023/05/15 08:13:06;;;;;;;7.78;4.80;;;;;;;19.07;42.85;100600.06;5074366;28;20368;-54
2023/05/15 08:15:33;;;;;;;10.20;5.18;;;;;;;18.97;42.42;100594.63;5072214;28;20463;-54
2023/05/15 08:17:59;;;;;;;10.82;4.70;;;;;;;19.06;43.07;100591.19;5072888;28;20436;-54
2023/05/15 08:20:26;;;;;;;18.75;4.95;;;;;;;19.10;41.83;100589.09;5078347;28;20132;-54
2023/05/15 08:22:52;;;;;;;15.70;5.60;;;;;;;19.18;41.86;100589.28;5071815;28;20158;-54
2023/05/15 08:25:19;;;;;;;10.10;5.25;;;;;;;19.05;42.54;100583.28;5078232;28;20044;-54
2023/05/15 08:27:45;;;;;;;6.53;4.95;;;;;;;19.36;41.20;100583.34;5081626;28;20036;-55
2023/05/15 08:30:12;;;;;;;11.48;5.25;;;;;;;19.51;41.27;100582.03;5072936;28;20056;-54
2023/05/15 08:32:39;;;;;;;9.73;5.20;;;;;;;19.66;40.86;100584.38;5095885;28;20048;-55
2023/05/15 08:35:06;;;;;;;12.32;5.13;;;;;;;19.71;40.59;100572.25;5084525;28;20076;-55
2023/05/15 08:37:32;;;;;;;8.90;4.25;;;;;;;20.13;39.69;100571.34;5078498;28;20052;-54
2023/05/15 08:39:59;;;;;;;9.90;4.50;;;;;;;19.72;39.14;100573.13;5077951;28;20044;-54
2023/05/15 08:42:38;;;;;;;11.82;4.82;;;;;;;20.05;40.04;100565.81;5081138;28;20052;-54
2023/05/15 08:45:06;;;;;;;5.72;4.00;;;;;;;20.02;39.12;100563.41;5078253;28;20346;-55
2023/05/15 08:47:37;;;;;;;12.60;4.50;;;;;;;20.13;39.05;100560.59;5077280;28;20453;-55
2023/05/15 08:50:10;;;;;;;11.60;4.60;;;;;;;20.07;39.16;100561.16;5066605;28;20552;-55
2023/05/15 08:52:40;;;;;;;6.55;4.65;;;;;;;20.21;38.71;100567.97;5071756;28;20057;-55
2023/05/15 08:55:09;;;;;;;10.13;4.63;;;;;;;20.25;37.78;100555.97;5070453;28;20059;-54
2023/05/15 08:57:37;;;;;;;9.73;4.53;;;;;;;19.77;38.13;100555.66;5053459;28;20051;-54
2023/05/15 09:00:07;;;;;;;9.15;5.03;;;;;;;19.61;38.73;100556.13;5071508;28;20375;-54
2023/05/15 09:02:36;;;;;;;11.88;5.13;;;;;;;20.20;37.97;100555.53;5071964;28;20052;-54
2023/05/15 09:05:05;;;;;;;8.57;4.95;;;;;;;20.25;38.85;100548.75;5072552;28;20151;-54
2023/05/15 09:07:32;;;;;;;6.20;4.28;;;;;;;20.22;38.84;100550.88;5069498;28;20055;-55
2023/05/15 09:10:00;;;;;;;10.13;4.75;;;;;;;20.38;38.49;100553.88;5071062;28;20048;-55
2023/05/15 09:12:27;;;;;;;6.50;4.10;;;;;;;20.29;37.88;100555.56;5069864;28;20045;-55
2023/05/15 09:15:11;;;;;;;7.15;4.40;;;;;;;20.24;37.76;100551.63;5081353;28;20063;-54
2023/05/15 09:17:39;;;;;;;8.95;5.05;;;;;;;20.35;37.95;100549.66;5069453;28;20044;-55
2023/05/15 09:20:07;;;;;;;8.32;4.75;;;;;;;20.43;38.71;100546.25;5087359;28;20072;-55
2023/05/15 09:22:35;;;;;;;7.05;4.53;;;;;;;20.42;38.88;100549.09;5091930;28;20051;-54
2023/05/15 09:25:02;;;;;;;6.47;4.60;;;;;;;20.26;38.65;100545.09;5083132;28;20044;-54
2023/05/15 09:27:29;;;;;;;7.50;4.38;;;;;;;20.33;39.56;100543.56;5071448;28;20045;-55
2023/05/15 09:30:07;;;;;;;9.63;4.70;;;;;;;20.53;38.73;100540.91;5071563;28;20059;-55
2023/05/15 09:32:36;;;;;;;11.50;5.00;;;;;;;20.44;38.67;100537.22;5074947;28;20056;-55
2023/05/15 09:35:03;;;;;;;12.18;5.05;;;;;;;20.17;39.22;100529.81;5079781;28;20113;-54
2023/05/15 09:37:31;;;;;;;9.48;4.25;;;;;;;20.30;39.72;100535.81;5075774;28;20644;-54
2023/05/15 09:40:09;;;;;;;9.55;4.28;;;;;;;20.16;39.36;100534.34;5083807;28;20044;-54
2023/05/15 09:42:36;;;;;;;6.65;4.43;;;;;;;20.53;38.37;100527.47;5073129;28;20056;-54
2023/05/15 09:45:03;;;;;;;9.75;4.18;;;;;;;20.75;37.85;100528.25;5074817;28;20060;-55
2023/05/15 09:47:30;;;;;;;8.05;4.38;;;;;;;20.66;38.22;100530.78;5074482;28;20045;-55
2023/05/15 09:49:57;;;;;;;6.85;5.15;;;;;;;20.86;38.17;100530.78;5079988;28;20044;-55
2023/05/15 09:52:23;;;;;;;7.03;4.88;;;;;;;21.14;37.99;100517.47;5065177;28;20368;-55
2023/05/15 09:54:50;;;;;;;10.75;4.32;;;;;;;21.05;38.07;100513.78;5074904;28;20120;-54
2023/05/15 09:57:21;;;;;;;9.30;4.40;;;;;;;20.94;38.38;100522.00;5074054;28;20044;-54
2023/05/15 09:59:48;;;;;;;10.40;5.25;;;;;;;20.61;37.84;100511.50;5073803;28;20052;-54
2023/05/15 10:02:33;;;;;;;11.13;5.32;;;;;;;20.72;38.03;100516.78;5066367;28;20058;-55
2023/05/15 10:04:59;;;;;;;9.40;4.75;;;;;;;21.19;38.09;100509.81;5069717;28;20048;-55
2023/05/15 10:07:30;;;;;;;13.55;5.50;;;;;;;21.54;36.70;100511.00;5079399;28;20135;-55
2023/05/15 10:09:58;;;;;;;8.07;4.35;;;;;;;21.58;36.42;100504.34;5087387;28;20057;-54
2023/05/15 10:12:25;;;;;;;10.68;4.60;;;;;;;21.44;35.23;100508.31;5080330;28;20049;-55
2023/05/15 10:14:55;;;;;;;10.98;5.10;;;;;;;21.76;35.78;100507.94;5073676;28;20106;-56
2023/05/15 10:17:22;;;;;;;12.57;4.63;;;;;;;21.94;36.82;100515.22;5086699;28;20048;-55
2023/05/15 10:19:52;;;;;;;14.13;5.05;;;;;;;21.91;36.53;100510.16;5056332;28;20052;-55
2023/05/15 10:22:31;;;;;;;5.00;4.43;;;;;;;21.79;36.47;100507.66;5075383;28;20063;-55
2023/05/15 10:25:02;;;;;;;11.43;4.85;;;;;;;21.81;37.00;100511.03;5083603;28;20452;-56
2023/05/15 10:27:29;;;;;;;;;;;;;;;21.64;36.59;100506.44;5075448;28;20049;-54
2023/05/15 10:29:57;;;;;;;5.65;4.80;;;;;;;21.76;36.97;100505.25;5075638;28;19920;-53
2023/05/15 10:32:25;;;;;;;7.63;4.93;;;;;;;22.18;36.09;100502.06;5073383;28;20055;-54
2023/05/15 10:34:53;;;;;;;10.40;4.82;;;;;;;22.38;36.20;100496.56;5073564;28;20056;-54
2023/05/15 10:37:21;;;;;;;9.48;4.55;;;;;;;22.65;36.46;100494.78;5074172;28;20044;-55
2023/05/15 10:39:49;;;;;;;9.80;5.55;;;;;;;23.32;34.83;100495.13;5073141;28;20052;-54
2023/05/15 10:42:16;;;;;;;13.38;5.22;;;;;;;23.18;34.74;100490.31;5085356;28;20059;-55
2023/05/15 10:44:42;;;;;;;14.00;4.68;;;;;;;23.53;33.49;100481.28;5075669;28;20407;-56
2023/05/15 10:47:09;;;;;;;12.55;5.22;;;;;;;23.59;33.34;100485.19;5080866;28;20052;-54
2023/05/15 10:49:35;;;;;;;14.98;5.75;;;;;;;23.38;34.07;100475.63;5074301;28;20052;-54
2023/05/15 10:52:02;;;;;;;9.05;4.05;;;;;;;23.63;33.56;100476.59;5082198;28;20129;-55
2023/05/15 10:54:29;;;;;;;10.13;4.95;;;;;;;23.69;33.32;100472.41;5091932;28;20044;-55
2023/05/15 10:56:56;;;;;;;9.23;4.47;;;;;;;24.48;32.64;100469.44;5073292;28;20150;-55
2023/05/15 10:59:30;;;;;;;6.13;3.92;;;;;;;24.57;32.40;100463.06;5071927;28;20052;-55
2023/05/15 11:02:22;;;;;;;6.93;4.30;;;;;;;25.78;30.58;100456.72;5068464;28;20049;-55
2023/05/15 11:04:59;;;;;;;11.82;4.20;;;;;;;25.43;30.60;100453.47;5059836;28;20044;-54
2023/05/15 11:07:26;;;;;;;6.57;3.53;;;;;;;25.72;29.76;100462.84;5070588;28;20048;-56
2023/05/15 11:09:54;;;;;;;5.68;3.60;;;;;;;26.12;29.12;100447.44;5068584;28;20052;-55
2023/05/15 11:12:22;;;;;;;7.30;3.75;;;;;;;26.48;27.95;100451.38;5072847;28;20110;-55
2023/05/15 11:14:51;;;;;;;6.47;3.60;;;;;;;27.01;26.33;100446.06;5067650;28;20132;-56
2023/05/15 11:17:17;;;;;;;7.50;3.70;;;;;;;26.78;25.95;100446.94;5065160;28;20040;-54
2023/05/15 11:19:50;;;;;;;8.85;4.50;;;;;;;28.68;23.86;100431.78;5074843;28;20048;-54
2023/05/15 11:22:16;;;;;;;4.82;2.95;;;;;;;27.58;25.50;100423.72;5068864;28;20051;-55
2023/05/15 11:24:49;;;;;;;10.35;4.30;;;;;;;25.31;30.11;100427.81;5079160;28;20058;-55